createdAt,value
2024-02-21T00:02:39.449Z,4.80
2024-02-21T00:06:41.064Z,4.87
2024-02-21T00:10:43.202Z,5.77
2024-02-21T00:14:44.878Z,4.63
2024-02-21T00:18:48.417Z,4.63
2024-02-21T00:22:50.130Z,4.73
2024-02-21T00:26:52.007Z,4.77
2024-02-21T00:30:53.559Z,4.50
2024-02-21T00:34:56.911Z,5.07
2024-02-21T00:38:58.529Z,4.83
2024-02-21T00:43:00.141Z,4.60
2024-02-21T00:47:02.043Z,5.30
2024-02-21T00:51:05.362Z,5.30
2024-02-21T00:55:08.219Z,4.43
2024-02-21T00:59:09.941Z,5.20
2024-02-21T01:03:11.662Z,5.20
2024-02-21T01:07:14.765Z,5.17
2024-02-21T01:11:16.721Z,5.50
2024-02-21T01:15:18.960Z,4.87
2024-02-21T01:19:20.776Z,4.67
2024-02-21T01:23:23.770Z,5.43
2024-02-21T01:27:25.369Z,4.97
2024-02-21T01:31:27.090Z,4.93
2024-02-21T01:35:28.829Z,4.67
2024-02-21T01:39:31.915Z,4.90
2024-02-21T01:43:33.684Z,5.07
2024-02-21T01:47:35.733Z,5.07
2024-02-21T01:51:38.214Z,4.40
2024-02-21T01:55:42.701Z,5.10
2024-02-21T01:59:46.661Z,5.33
2024-02-21T02:03:48.624Z,5.40
2024-02-21T02:07:50.282Z,5.30
2024-02-21T02:11:54.489Z,4.67
2024-02-21T02:15:56.336Z,4.30
2024-02-21T02:19:58.373Z,4.30
2024-02-21T02:24:01.565Z,5.33
2024-02-21T02:28:04.191Z,4.10
2024-02-21T02:32:06.872Z,4.67
2024-02-21T02:36:08.775Z,5.10
2024-02-21T02:40:12.443Z,4.87
2024-02-21T02:44:14.123Z,4.27
2024-02-21T02:48:15.859Z,4.20
2024-02-21T02:52:18.373Z,4.63
2024-02-21T02:56:21.337Z,3.93
2024-02-21T03:00:23.111Z,4.30
2024-02-21T03:04:25.070Z,4.70
2024-02-21T03:08:26.802Z,4.30
2024-02-21T03:12:30.084Z,4.70
2024-02-21T03:16:32.799Z,4.53
2024-02-21T03:20:34.580Z,4.27
2024-02-21T03:24:37.643Z,3.83
2024-02-21T03:28:40.762Z,3.77
2024-02-21T03:32:42.627Z,3.83
2024-02-21T03:36:44.276Z,4.50
2024-02-21T03:40:46.250Z,3.80
2024-02-21T03:44:49.228Z,4.00
2024-02-21T03:48:50.965Z,4.40
2024-02-21T03:52:52.592Z,3.90
2024-02-21T03:56:54.767Z,3.80
2024-02-21T04:00:57.741Z,3.97
2024-02-21T04:05:00.827Z,4.17
2024-02-21T04:09:02.724Z,4.13
2024-02-21T04:13:06.145Z,3.70
2024-02-21T04:17:09.038Z,3.47
2024-02-21T04:21:13.089Z,3.77
2024-02-21T04:25:16.398Z,3.80
2024-02-21T04:29:18.141Z,3.80
2024-02-21T04:33:21.241Z,3.87
2024-02-21T04:37:23.196Z,4.47
2024-02-21T04:41:25.164Z,3.77
2024-02-21T04:45:27.997Z,3.73
2024-02-21T04:49:31.463Z,3.47
2024-02-21T04:53:33.312Z,3.37
2024-02-21T04:57:35.115Z,4.00
2024-02-21T05:01:36.838Z,3.70
2024-02-21T05:05:40.077Z,3.87
2024-02-21T05:09:43.441Z,4.43
2024-02-21T05:13:45.209Z,3.73
2024-02-21T05:17:46.989Z,3.80
2024-02-21T05:21:50.108Z,4.03
2024-02-21T05:25:51.982Z,3.90
2024-02-21T05:29:54.521Z,4.10
2024-02-21T05:33:56.108Z,3.70
2024-02-21T05:37:59.246Z,3.30
2024-02-21T05:42:01.080Z,3.80
2024-02-21T05:46:02.756Z,3.50
2024-02-21T05:50:05.180Z,3.40
2024-02-21T05:54:08.253Z,3.23
2024-02-21T05:58:09.855Z,3.60
2024-02-21T06:02:11.594Z,3.70
2024-02-21T06:06:13.268Z,3.60
2024-02-21T06:10:16.751Z,4.10
2024-02-21T06:14:28.900Z,3.80
2024-02-21T06:18:30.760Z,3.60
2024-02-21T06:22:32.522Z,3.40
2024-02-21T06:26:35.577Z,3.40
2024-02-21T06:30:37.611Z,3.03
2024-02-21T06:34:39.380Z,3.03
2024-02-21T06:38:41.410Z,3.77
2024-02-21T06:42:44.484Z,3.50
2024-02-21T06:46:46.477Z,3.63
2024-02-21T06:50:48.335Z,3.80
2024-02-21T06:54:51.143Z,3.67
2024-02-21T06:58:54.217Z,3.60
2024-02-21T07:02:56.202Z,3.20
2024-02-21T07:06:57.851Z,3.37
2024-02-21T07:11:00.021Z,3.63
2024-02-21T07:15:06.770Z,3.47
2024-02-21T07:19:09.344Z,4.03
2024-02-21T07:23:11.071Z,3.73
2024-02-21T07:27:14.721Z,3.83
2024-02-21T07:31:17.793Z,6.03
2024-02-21T07:35:19.881Z,3.27
2024-02-21T07:39:21.661Z,3.17
2024-02-21T07:43:23.808Z,3.57
2024-02-21T07:47:26.928Z,3.90
2024-02-21T07:51:28.921Z,3.33
2024-02-21T07:55:30.640Z,3.57
2024-02-21T07:59:32.255Z,3.70
2024-02-21T08:03:35.372Z,3.40
2024-02-21T08:07:37.080Z,3.57
2024-02-21T08:11:39.140Z,3.30
2024-02-21T08:15:41.944Z,3.50
2024-02-21T08:19:44.883Z,3.20
2024-02-21T08:23:46.595Z,3.53
2024-02-21T08:27:48.310Z,3.67
2024-02-21T08:31:49.948Z,3.50
2024-02-21T08:35:53.086Z,3.30
2024-02-21T08:39:54.808Z,3.83
2024-02-21T08:43:56.430Z,3.20
2024-02-21T08:47:58.218Z,3.63
2024-02-21T08:52:02.039Z,3.50
2024-02-21T08:56:04.894Z,3.27
2024-02-21T09:00:07.683Z,3.27
2024-02-21T09:04:10.086Z,3.40
2024-02-21T09:08:15.805Z,3.00
2024-02-21T09:12:17.369Z,2.63
2024-02-21T09:16:19.277Z,2.47
2024-02-21T09:20:21.026Z,2.80
2024-02-21T09:24:24.315Z,2.73
2024-02-21T09:28:26.232Z,2.60
2024-02-21T09:32:28.010Z,2.80
2024-02-21T09:36:29.851Z,2.83
2024-02-21T09:40:33.071Z,3.00
2024-02-21T09:44:38.325Z,2.77
2024-02-21T09:48:55.973Z,3.73
2024-02-21T09:52:59.833Z,2.90
2024-02-21T09:57:03.848Z,2.97
2024-02-21T10:01:11.054Z,3.10
2024-02-21T10:05:18.406Z,3.47
2024-02-21T10:09:24.447Z,3.00
2024-02-21T10:13:29.426Z,2.70
2024-02-21T10:17:31.194Z,2.47
2024-02-21T10:21:33.919Z,3.00
2024-02-21T10:25:36.400Z,2.67
2024-02-21T10:29:40.102Z,2.87
2024-02-21T10:33:42.520Z,3.00
2024-02-21T10:37:44.227Z,2.80
2024-02-21T10:41:46.302Z,3.20
2024-02-21T10:45:52.862Z,2.70
2024-02-21T10:50:03.348Z,2.40
2024-02-21T10:54:19.003Z,2.63
2024-02-21T10:58:20.846Z,2.50
2024-02-21T11:02:24.287Z,2.00
2024-02-21T11:06:27.618Z,2.80
2024-02-21T11:10:29.440Z,2.20
2024-02-21T11:14:32.541Z,2.50
2024-02-21T11:18:35.866Z,2.57
2024-02-21T11:22:42.520Z,2.30
2024-02-21T11:26:44.172Z,2.13
2024-02-21T11:30:45.993Z,2.50
2024-02-21T11:34:59.191Z,2.57
2024-02-21T11:39:05.226Z,1.93
2024-02-21T11:43:07.069Z,2.27
2024-02-21T11:47:10.043Z,2.10
2024-02-21T11:51:22.264Z,2.67
2024-02-21T11:55:25.473Z,2.43
2024-02-21T11:59:28.573Z,3.60
2024-02-21T12:03:30.832Z,3.60
2024-02-21T12:07:34.134Z,2.57
2024-02-21T12:11:35.896Z,3.17
2024-02-21T12:15:39.885Z,4.03
2024-02-21T12:19:41.585Z,6.40
2024-02-21T12:23:45.747Z,3.23
2024-02-21T12:27:47.509Z,2.50
2024-02-21T12:31:50.203Z,3.20
2024-02-21T12:35:51.778Z,3.10
2024-02-21T12:39:54.818Z,3.53
2024-02-21T12:43:56.753Z,2.70
2024-02-21T12:47:58.900Z,2.67
2024-02-21T12:52:00.690Z,3.00
2024-02-21T12:56:04.109Z,2.30
2024-02-21T13:00:07.123Z,3.50
2024-02-21T13:04:08.931Z,1.70
2024-02-21T13:08:10.655Z,3.70
2024-02-21T13:12:13.805Z,2.20
2024-02-21T13:16:15.563Z,2.50
2024-02-21T13:20:17.329Z,2.17
2024-02-21T13:24:19.177Z,3.13
2024-02-21T13:28:22.154Z,2.20
2024-02-21T13:32:23.864Z,2.17
2024-02-21T13:36:25.859Z,2.40
2024-02-21T13:40:27.636Z,4.07
2024-02-21T13:44:30.661Z,2.40
2024-02-21T13:48:32.749Z,2.57
2024-02-21T13:52:34.396Z,2.30
2024-02-21T13:56:36.094Z,2.20
2024-02-21T14:00:39.241Z,2.70
2024-02-21T14:04:40.945Z,1.87
2024-02-21T14:08:42.923Z,2.20
2024-02-21T14:12:44.532Z,2.10
2024-02-21T14:16:47.700Z,2.17
2024-02-21T14:20:49.315Z,2.00
2024-02-21T14:24:50.990Z,1.93
2024-02-21T14:28:52.705Z,2.03
2024-02-21T14:32:55.940Z,2.00
2024-02-21T14:36:57.791Z,2.30
2024-02-21T14:41:01.787Z,2.20
2024-02-21T14:45:03.980Z,2.10
2024-02-21T14:49:07.110Z,2.07
2024-02-21T14:53:09.239Z,2.00
2024-02-21T14:57:11.100Z,2.50
2024-02-21T15:01:12.792Z,1.90
2024-02-21T15:05:16.199Z,1.67
2024-02-21T15:09:17.971Z,2.03
2024-02-21T15:13:19.535Z,1.90
2024-02-21T15:17:21.259Z,1.80
2024-02-21T15:21:24.363Z,1.93
2024-02-21T15:25:26.182Z,1.87
2024-02-21T15:29:27.814Z,1.87
2024-02-21T15:33:29.415Z,1.93
2024-02-21T15:37:32.942Z,2.20
2024-02-21T15:41:34.798Z,2.03
2024-02-21T15:45:36.442Z,1.57
2024-02-21T15:49:38.213Z,2.23
2024-02-21T15:53:41.248Z,1.80
2024-02-21T15:57:43.061Z,2.30
2024-02-21T16:01:44.851Z,2.00
2024-02-21T16:05:46.936Z,2.00
2024-02-21T16:09:50.026Z,1.83
2024-02-21T16:13:51.744Z,2.07
2024-02-21T16:17:53.432Z,2.30
2024-02-21T16:21:55.457Z,2.13
2024-02-21T16:25:58.578Z,2.47
2024-02-21T16:30:00.222Z,2.00
2024-02-21T16:34:01.844Z,1.80
2024-02-21T16:38:04.041Z,1.70
2024-02-21T16:42:07.307Z,1.70
2024-02-21T16:46:08.911Z,2.10
2024-02-21T16:50:10.957Z,1.90
2024-02-21T16:54:12.735Z,1.87
2024-02-21T16:58:15.765Z,1.90
2024-02-21T17:02:17.574Z,1.90
2024-02-21T17:06:19.792Z,1.73
2024-02-21T17:10:21.783Z,1.97
2024-02-21T17:14:24.790Z,2.20
2024-02-21T17:18:26.643Z,1.90
2024-02-21T17:22:29.726Z,2.07
2024-02-21T17:26:32.202Z,2.20
2024-02-21T17:30:35.514Z,2.13
2024-02-21T17:34:37.271Z,1.97
2024-02-21T17:38:38.910Z,2.53
2024-02-21T17:42:40.744Z,2.20
2024-02-21T17:46:43.776Z,2.80
2024-02-21T17:50:45.521Z,2.53
2024-02-21T17:54:47.641Z,2.97
2024-02-21T17:58:49.940Z,2.73
2024-02-21T18:02:53.134Z,2.83
2024-02-21T18:06:54.805Z,2.30
2024-02-21T18:10:56.833Z,2.60
2024-02-21T18:15:00.721Z,4.80
2024-02-21T18:19:04.140Z,2.40
2024-02-21T18:23:06.121Z,2.00
2024-02-21T18:27:07.870Z,2.57
2024-02-21T18:31:09.577Z,2.70
2024-02-21T18:35:12.935Z,2.60
2024-02-21T18:39:14.638Z,2.50
2024-02-21T18:43:16.416Z,3.23
2024-02-21T18:47:18.216Z,2.30
2024-02-21T18:51:21.318Z,2.13
2024-02-21T18:55:23.228Z,2.63
2024-02-21T18:59:24.905Z,2.50
2024-02-21T19:03:26.562Z,2.43
2024-02-21T19:07:29.676Z,2.50
2024-02-21T19:11:31.731Z,2.50
2024-02-21T19:15:33.544Z,2.77
2024-02-21T19:19:35.240Z,2.70
2024-02-21T19:23:38.289Z,2.83
2024-02-21T19:27:40.571Z,2.60
2024-02-21T19:31:42.171Z,3.00
2024-02-21T19:35:44.002Z,2.70
2024-02-21T19:39:46.975Z,2.80
2024-02-21T19:43:48.672Z,3.20
2024-02-21T19:47:50.496Z,3.00
2024-02-21T19:51:52.057Z,3.23
2024-02-21T19:55:55.212Z,3.00
2024-02-21T19:59:56.983Z,2.60
2024-02-21T20:03:58.780Z,2.70
2024-02-21T20:08:01.438Z,2.90
2024-02-21T20:12:05.435Z,3.30
2024-02-21T20:16:07.769Z,2.40
2024-02-21T20:20:10.727Z,2.33
2024-02-21T20:24:20.455Z,2.33
2024-02-21T20:28:30.962Z,2.40
2024-02-21T20:32:32.635Z,2.03
2024-02-21T20:36:34.675Z,2.40
2024-02-21T20:40:36.506Z,2.13
2024-02-21T20:44:39.458Z,2.33
2024-02-21T20:48:41.205Z,2.13
2024-02-21T20:52:42.912Z,2.50
2024-02-21T20:56:44.641Z,2.00
2024-02-21T21:00:48.216Z,2.20
2024-02-21T21:04:49.995Z,2.07
2024-02-21T21:08:51.820Z,1.93
2024-02-21T21:12:53.535Z,2.07
2024-02-21T21:16:56.695Z,1.80
2024-02-21T21:20:58.588Z,2.00
2024-02-21T21:25:00.437Z,1.63
2024-02-21T21:29:02.143Z,1.70
2024-02-21T21:33:05.778Z,1.80
2024-02-21T21:37:07.518Z,1.57
2024-02-21T21:41:09.264Z,1.40
2024-02-21T21:45:11.837Z,1.53
2024-02-21T21:49:15.004Z,1.53
2024-02-21T21:53:16.688Z,1.60
2024-02-21T21:57:18.989Z,1.30
2024-02-21T22:01:20.642Z,1.23
2024-02-21T22:05:26.086Z,1.20
2024-02-21T22:09:27.822Z,1.10
2024-02-21T22:13:29.487Z,1.23
2024-02-21T22:17:31.262Z,1.20
2024-02-21T22:21:34.522Z,1.30
2024-02-21T22:25:36.162Z,1.10
2024-02-21T22:29:39.971Z,1.10
2024-02-21T22:33:42.548Z,0.90
2024-02-21T22:37:45.815Z,0.83
2024-02-21T22:41:47.674Z,0.90
2024-02-21T22:45:50.011Z,0.87
2024-02-21T22:49:51.679Z,1.00
2024-02-21T22:53:54.921Z,0.90
2024-02-21T22:57:56.585Z,0.70
2024-02-21T23:01:58.289Z,1.00
2024-02-21T23:05:59.903Z,0.67
2024-02-21T23:10:03.003Z,0.90
2024-02-21T23:14:04.828Z,0.93
2024-02-21T23:18:06.836Z,0.60
2024-02-21T23:22:08.450Z,0.70
2024-02-21T23:26:12.062Z,0.60
2024-02-21T23:30:13.980Z,0.80
2024-02-21T23:34:15.804Z,0.70
2024-02-21T23:38:17.690Z,0.60
2024-02-21T23:42:20.642Z,0.40
2024-02-21T23:46:22.371Z,0.40
2024-02-21T23:50:24.071Z,0.50
2024-02-21T23:54:25.903Z,0.50
2024-02-21T23:58:28.897Z,0.40
